Pagrindinis puslapis
METAR-TAF:

METAR-TAF

Oro uostai :

Mauricijus, Mauricijus

platuma: 20-26S, ilguma: 057-40E, Aukštis: 55 m

Dabartinis oras

Ataskaita buvo paskelbta 15 minutes, ne 18:00 UTC
Vėjas 4 kt iš Pietryčių
Temperatūra 22°C
Drėgmė 83%
Slėgis 1020 hPa
Matomumas 10 km arba daugiau
Su prošvaistėmis ne aukštis 1700 ft

METAR: FIMP 181800Z 13004KT 9999 BKN017 22/19 Q1020

Laikas: 22:15 (18:15 UTC)

Prognozė

Ataskaita buvo paskelbta 45 minutes, ne 17:30 UTC
Prognozė galioja nuo 18 metu 18 UTC su 20 metu 00 UTC
Vėjas 3 kt iš Pietryčių
Matomumas 10 km arba daugiau
Išsisklaidę debesys ne aukštis 1700 ft
Laikinai
nuo 18 metu 18 UTC su 19 metu 10 UTC
Matomumas: 7000 m
Išsisklaidę debesys ne aukštis 1500 ft
Su prošvaistėmis ne aukštis 4500 ft
lietus
Tapsmas
nuo 18 metu 20 UTC su 18 metu 22 UTC
Vėjas 3 kt iš Šiaurės/Šiaurės Vakarų
Tapsmas
nuo 19 metu 04 UTC su 19 metu 06 UTC
Vėjas 8 kt iš Pietryčių

TAF: FIMP 181730Z 1818/2000 13003KT 9999 SCT017 TEMPO 1818/1910 7000 -SHRA SCT015 BKN045 BECMG 1820/1822 33003KT BECMG 1904/1906 13008KT

Orai ataskaitas ir orų prognozės (METAR, TAF).

turimą stotys yra geltonos ir raudonos taškus žemėlapyje.

Perkelti pele per norėdami pamatyti stoties vardą.

Tada spustelėkite, norėdami matyti oro stebėjimo ir prognozės.

Norėdami pakeisti žemėlapį: spustelėkite ant žalios mygtukų su juodo kryžiaus žemyn,; žalią mygtuką su brūkšneliu, jei norite nutolinti; arba žalių rodyklių gretimoms žemėlapius.


METAR-TAF: